Windom, MN

11:42 PM CST on December 26, 2014 (GMT -0600)
Worthington Municipal | Change Station
CLOSE
Current Station
Airport
Location: Worthington,
Elevation: 1575 ft
Nearby Weather Stations
Active Advisory: Winter Weather Advisory Active Notice: Local Storm Report

Elev 1575 ft 43.66 °N, 95.58 °W | Updated 7 minutes ago

Snow
Snow
23 °F
Feels Like 10 °F
N
15
Wind Variable Wind from North

Today
High -- | Low -- °F
--% Chance of Precip.
Yesterday
High -- | Low -- °F
Precip. -- in
7:53 AM 4:48 PM
Waxing Crescent, 33% visible
Pressure 30.04 in
Visibility 4.0 miles
Clouds Scattered Clouds 900 ft
Overcast 3500 ft
Windchill 10 °F
Dew Point -24 °F
Humidity 12%
Rainfall 0.00 in
Snow Depth Not available.
UV 0 out of 12
Pollen .10 out of 12
Air Quality Not available.
Flu Activity Not available.
METAR KOTG 270535Z AUTO 36013KT 4SM SCT009 OVC035 M05/M31 A3004 RMK AO1

More Conditions Fewer Conditions

Pressure 30.04 in
Visibility 4.0 miles
Clouds Scattered Clouds 900 ft
Overcast 3500 ft
Windchill 10 °F
Dew Point -24 °F
Humidity 12%
Rainfall 0.00 in
Snow Depth Not available.
UV 0 out of 12
Pollen .10 out of 12
Air Quality Not available.
Flu Activity Not available.
METAR KOTG 270535Z AUTO 36013KT 4SM SCT009 OVC035 M05/M31 A3004 RMK AO1

More Conditions Fewer Conditions

10-Day Weather Forecast

Almanac

Astronomy

Dec. 26, 2014 Rise Set
Actual Time
Civil Twilight
Nautical Twilight
Astronomical Twilight
Moon
Length of Visible Light
Length of Day
Tomorrow will be .
, % of the Moon is Illuminated

Today's Extremes

State Highs State Lows

Community

WunderPhotos

Upload Photos

1,780,850 photos uploaded!

WunderBlogs® & News

Nearby

Air Quality

  Air Quality AQ Index Pollutant
Not available.

Snow Depth

Station Depth Elevation

Earthquake Activity

City Distance Mag. Time & Date
Minimum magnitude displayed is 2.5.

Coastal Water Temperatures

Place Temperature

Nearby Weather Stations